sensor_id;sensor_type;location;lat;lon;timestamp;pressure;altitude;pressure_sealevel;temperature;humidity
80242;BME280;69556;45.004;7.532;2023-10-19T00:01:57;97946.53;;;12.58;81.21
80242;BME280;69556;45.004;7.532;2023-10-19T00:04:25;97950.47;;;12.66;81.75
80242;BME280;69556;45.004;7.532;2023-10-19T00:06:50;97934.22;;;12.57;81.05
80242;BME280;69556;45.004;7.532;2023-10-19T00:09:15;97937.31;;;12.65;81.35
80242;BME280;69556;45.004;7.532;2023-10-19T00:11:41;97946.28;;;12.62;81.38
80242;BME280;69556;45.004;7.532;2023-10-19T00:14:07;97945.66;;;12.57;82.07
80242;BME280;69556;45.004;7.532;2023-10-19T00:16:44;97932.22;;;12.45;82.25
80242;BME280;69556;45.004;7.532;2023-10-19T00:19:22;97939.06;;;12.49;82.45
80242;BME280;69556;45.004;7.532;2023-10-19T00:21:48;97937.50;;;12.45;83.27
80242;BME280;69556;45.004;7.532;2023-10-19T00:24:22;97912.06;;;12.25;83.57
80242;BME280;69556;45.004;7.532;2023-10-19T00:26:48;97921.09;;;12.38;84.22
80242;BME280;69556;45.004;7.532;2023-10-19T00:29:17;97924.41;;;12.42;84.00
80242;BME280;69556;45.004;7.532;2023-10-19T00:31:56;97870.75;;;12.05;84.45
80242;BME280;69556;45.004;7.532;2023-10-19T00:34:23;97935.09;;;12.40;84.98
80242;BME280;69556;45.004;7.532;2023-10-19T00:36:49;97909.66;;;12.20;85.02
80242;BME280;69556;45.004;7.532;2023-10-19T00:39:16;97930.97;;;12.34;84.74
80242;BME280;69556;45.004;7.532;2023-10-19T00:41:46;97947.63;;;12.36;85.31
80242;BME280;69556;45.004;7.532;2023-10-19T00:44:13;97939.59;;;12.38;85.42
80242;BME280;69556;45.004;7.532;2023-10-19T00:46:42;97928.34;;;12.17;85.34
80242;BME280;69556;45.004;7.532;2023-10-19T00:49:08;97940.16;;;12.27;84.78
80242;BME280;69556;45.004;7.532;2023-10-19T00:51:50;97941.88;;;12.28;85.65
80242;BME280;69556;45.004;7.532;2023-10-19T00:54:32;97917.75;;;12.17;85.35
80242;BME280;69556;45.004;7.532;2023-10-19T00:57:03;97925.31;;;12.25;84.62
80242;BME280;69556;45.004;7.532;2023-10-19T00:59:38;97929.66;;;12.26;84.79
80242;BME280;69556;45.004;7.532;2023-10-19T01:02:08;97912.25;;;12.22;84.98
80242;BME280;69556;45.004;7.532;2023-10-19T01:04:55;97891.16;;;12.03;85.10
80242;BME280;69556;45.004;7.532;2023-10-19T01:07:22;97906.31;;;12.17;85.08
80242;BME280;69556;45.004;7.532;2023-10-19T01:09:54;97889.91;;;12.10;85.00
80242;BME280;69556;45.004;7.532;2023-10-19T01:12:22;97918.59;;;12.18;85.39
80242;BME280;69556;45.004;7.532;2023-10-19T01:15:19;97893.09;;;12.17;85.44
80242;BME280;69556;45.004;7.532;2023-10-19T01:17:57;97912.31;;;12.20;85.72
80242;BME280;69556;45.004;7.532;2023-10-19T01:20:28;97893.47;;;12.09;85.50
80242;BME280;69556;45.004;7.532;2023-10-19T01:23:07;97877.22;;;12.00;85.67
80242;BME280;69556;45.004;7.532;2023-10-19T01:25:59;97899.47;;;12.13;86.30
80242;BME280;69556;45.004;7.532;2023-10-19T01:31:17;97866.72;;;11.98;85.98
80242;BME280;69556;45.004;7.532;2023-10-19T01:33:48;97879.63;;;12.04;85.89
80242;BME280;69556;45.004;7.532;2023-10-19T01:36:14;97881.34;;;12.05;86.20
80242;BME280;69556;45.004;7.532;2023-10-19T01:39:02;97872.00;;;11.98;86.18
80242;BME280;69556;45.004;7.532;2023-10-19T01:41:34;97850.31;;;11.91;86.28
80242;BME280;69556;45.004;7.532;2023-10-19T01:44:00;97870.28;;;11.97;86.33
80242;BME280;69556;45.004;7.532;2023-10-19T01:46:39;97861.66;;;11.94;86.79
80242;BME280;69556;45.004;7.532;2023-10-19T01:49:05;97865.69;;;12.01;86.82
80242;BME280;69556;45.004;7.532;2023-10-19T01:51:34;97835.91;;;11.97;86.14
80242;BME280;69556;45.004;7.532;2023-10-19T01:54:08;97846.88;;;12.07;86.50
80242;BME280;69556;45.004;7.532;2023-10-19T01:56:35;97833.72;;;12.05;85.94
80242;BME280;69556;45.004;7.532;2023-10-19T01:59:04;97824.25;;;12.01;86.19
80242;BME280;69556;45.004;7.532;2023-10-19T02:01:31;97827.56;;;12.05;86.18
80242;BME280;69556;45.004;7.532;2023-10-19T02:04:03;97822.44;;;12.02;85.79
80242;BME280;69556;45.004;7.532;2023-10-19T02:06:32;97830.78;;;11.94;86.71
80242;BME280;69556;45.004;7.532;2023-10-19T02:11:39;97803.72;;;11.89;86.33
80242;BME280;69556;45.004;7.532;2023-10-19T02:14:07;97828.66;;;12.01;86.27
80242;BME280;69556;45.004;7.532;2023-10-19T02:17:12;97814.22;;;11.90;86.37
80242;BME280;69556;45.004;7.532;2023-10-19T02:19:30;97824.53;;;11.95;86.18
80242;BME280;69556;45.004;7.532;2023-10-19T02:22:00;97815.84;;;11.93;86.60
80242;BME280;69556;45.004;7.532;2023-10-19T02:24:29;97822.88;;;11.94;86.71
80242;BME280;69556;45.004;7.532;2023-10-19T02:26:56;97800.34;;;11.85;86.68
80242;BME280;69556;45.004;7.532;2023-10-19T02:29:22;97800.13;;;11.90;86.96
80242;BME280;69556;45.004;7.532;2023-10-19T02:31:48;97781.22;;;11.80;86.63
80242;BME280;69556;45.004;7.532;2023-10-19T02:34:15;97804.00;;;12.00;86.82
80242;BME280;69556;45.004;7.532;2023-10-19T02:36:41;97792.19;;;11.90;87.00
80242;BME280;69556;45.004;7.532;2023-10-19T02:39:09;97803.31;;;11.97;87.11
80242;BME280;69556;45.004;7.532;2023-10-19T02:41:39;97787.88;;;11.89;87.60
80242;BME280;69556;45.004;7.532;2023-10-19T02:44:17;97777.28;;;11.89;87.59
80242;BME280;69556;45.004;7.532;2023-10-19T02:46:44;97791.44;;;11.88;88.08
80242;BME280;69556;45.004;7.532;2023-10-19T02:49:11;97768.72;;;11.84;88.14
80242;BME280;69556;45.004;7.532;2023-10-19T02:51:39;97773.09;;;11.85;87.68
80242;BME280;69556;45.004;7.532;2023-10-19T02:54:06;97760.00;;;11.82;87.98
80242;BME280;69556;45.004;7.532;2023-10-19T02:56:32;97782.22;;;11.95;87.91
80242;BME280;69556;45.004;7.532;2023-10-19T02:59:01;97776.44;;;11.88;87.91
80242;BME280;69556;45.004;7.532;2023-10-19T03:01:30;97775.75;;;11.85;88.39
80242;BME280;69556;45.004;7.532;2023-10-19T03:04:00;97760.81;;;11.84;88.28
80242;BME280;69556;45.004;7.532;2023-10-19T03:06:30;97770.34;;;11.86;88.24
80242;BME280;69556;45.004;7.532;2023-10-19T03:08:59;97764.06;;;11.89;87.60
80242;BME280;69556;45.004;7.532;2023-10-19T03:11:45;97775.31;;;11.93;87.71
80242;BME280;69556;45.004;7.532;2023-10-19T03:14:11;97765.69;;;11.91;87.76
80242;BME280;69556;45.004;7.532;2023-10-19T03:16:37;97744.38;;;11.77;87.67
80242;BME280;69556;45.004;7.532;2023-10-19T03:19:03;97753.38;;;11.90;87.84
80242;BME280;69556;45.004;7.532;2023-10-19T03:21:30;97729.22;;;11.81;88.46
80242;BME280;69556;45.004;7.532;2023-10-19T03:23:59;97736.59;;;11.91;88.74
80242;BME280;69556;45.004;7.532;2023-10-19T03:26:30;97731.63;;;11.85;88.47
80242;BME280;69556;45.004;7.532;2023-10-19T03:29:02;97739.22;;;11.91;88.50
80242;BME280;69556;45.004;7.532;2023-10-19T03:31:33;97720.66;;;11.76;88.83
80242;BME280;69556;45.004;7.532;2023-10-19T03:34:02;97690.72;;;11.58;88.88
80242;BME280;69556;45.004;7.532;2023-10-19T03:36:30;97737.13;;;11.81;89.12
80242;BME280;69556;45.004;7.532;2023-10-19T03:38:57;97694.78;;;11.65;89.67
80242;BME280;69556;45.004;7.532;2023-10-19T03:41:30;97707.13;;;11.65;89.79
80242;BME280;69556;45.004;7.532;2023-10-19T03:44:01;97694.53;;;11.70;89.77
80242;BME280;69556;45.004;7.532;2023-10-19T03:46:26;97719.59;;;11.80;90.08
80242;BME280;69556;45.004;7.532;2023-10-19T03:49:03;97703.19;;;11.73;90.28
80242;BME280;69556;45.004;7.532;2023-10-19T03:51:38;97692.75;;;11.70;89.80
80242;BME280;69556;45.004;7.532;2023-10-19T03:54:23;97704.50;;;11.82;89.73
80242;BME280;69556;45.004;7.532;2023-10-19T03:56:50;97695.28;;;11.72;90.25
80242;BME280;69556;45.004;7.532;2023-10-19T03:59:16;97687.72;;;11.66;89.60
80242;BME280;69556;45.004;7.532;2023-10-19T04:01:42;97713.03;;;11.70;90.04
80242;BME280;69556;45.004;7.532;2023-10-19T04:04:09;97715.69;;;11.70;90.01
80242;BME280;69556;45.004;7.532;2023-10-19T04:06:35;97699.81;;;11.70;90.08
80242;BME280;69556;45.004;7.532;2023-10-19T04:09:00;97677.63;;;11.57;90.21
80242;BME280;69556;45.004;7.532;2023-10-19T04:11:25;97686.59;;;11.70;89.57
80242;BME280;69556;45.004;7.532;2023-10-19T04:13:58;97660.03;;;11.56;89.48
80242;BME280;69556;45.004;7.532;2023-10-19T04:16:28;97674.16;;;11.72;89.81
80242;BME280;69556;45.004;7.532;2023-10-19T04:18:54;97665.59;;;11.67;89.45
80242;BME280;69556;45.004;7.532;2023-10-19T04:21:19;97672.59;;;11.68;89.45
80242;BME280;69556;45.004;7.532;2023-10-19T04:23:45;97675.03;;;11.72;89.29
80242;BME280;69556;45.004;7.532;2023-10-19T04:26:12;97668.75;;;11.75;89.67
80242;BME280;69556;45.004;7.532;2023-10-19T04:28:40;97648.59;;;11.72;89.57
80242;BME280;69556;45.004;7.532;2023-10-19T04:31:18;97658.06;;;11.76;89.47
80242;BME280;69556;45.004;7.532;2023-10-19T04:33:44;97643.53;;;11.68;89.95
80242;BME280;69556;45.004;7.532;2023-10-19T04:36:13;97637.56;;;11.64;89.29
80242;BME280;69556;45.004;7.532;2023-10-19T04:38:39;97652.63;;;11.79;89.48
80242;BME280;69556;45.004;7.532;2023-10-19T04:41:08;97637.94;;;11.74;89.85
80242;BME280;69556;45.004;7.532;2023-10-19T04:43:35;97640.34;;;11.78;90.33
80242;BME280;69556;45.004;7.532;2023-10-19T04:46:07;97627.88;;;11.80;89.59
80242;BME280;69556;45.004;7.532;2023-10-19T04:48:36;97625.41;;;11.77;89.98
80242;BME280;69556;45.004;7.532;2023-10-19T04:51:02;97608.81;;;11.75;89.80
80242;BME280;69556;45.004;7.532;2023-10-19T04:53:30;97593.56;;;11.63;89.57
80242;BME280;69556;45.004;7.532;2023-10-19T04:55:56;97590.84;;;11.65;89.40
80242;BME280;69556;45.004;7.532;2023-10-19T04:58:21;97597.38;;;11.75;89.35
80242;BME280;69556;45.004;7.532;2023-10-19T05:00:47;97586.69;;;11.76;88.71
80242;BME280;69556;45.004;7.532;2023-10-19T05:03:14;97596.41;;;11.76;89.43
80242;BME280;69556;45.004;7.532;2023-10-19T05:05:44;97593.50;;;11.80;89.45
80242;BME280;69556;45.004;7.532;2023-10-19T05:08:09;97580.75;;;11.71;89.09
80242;BME280;69556;45.004;7.532;2023-10-19T05:10:34;97578.47;;;11.65;89.10
80242;BME280;69556;45.004;7.532;2023-10-19T05:13:00;97591.34;;;11.71;89.46
80242;BME280;69556;45.004;7.532;2023-10-19T05:15:25;97559.88;;;11.67;89.19
80242;BME280;69556;45.004;7.532;2023-10-19T05:17:50;97567.78;;;11.67;89.76
80242;BME280;69556;45.004;7.532;2023-10-19T05:20:16;97578.75;;;11.76;89.20
80242;BME280;69556;45.004;7.532;2023-10-19T05:22:41;97572.47;;;11.79;89.47
80242;BME280;69556;45.004;7.532;2023-10-19T05:25:07;97574.19;;;11.80;89.55
80242;BME280;69556;45.004;7.532;2023-10-19T05:27:33;97555.19;;;11.72;89.77
80242;BME280;69556;45.004;7.532;2023-10-19T05:30:00;97537.78;;;11.52;90.00
80242;BME280;69556;45.004;7.532;2023-10-19T05:32:25;97554.50;;;11.68;89.97
80242;BME280;69556;45.004;7.532;2023-10-19T05:34:50;97542.41;;;11.64;89.93
80242;BME280;69556;45.004;7.532;2023-10-19T05:37:16;97522.44;;;11.59;89.84
80242;BME280;69556;45.004;7.532;2023-10-19T05:39:42;97549.78;;;11.75;89.75
80242;BME280;69556;45.004;7.532;2023-10-19T05:42:09;97551.31;;;11.79;89.75
80242;BME280;69556;45.004;7.532;2023-10-19T05:44:34;97541.09;;;11.71;89.78
80242;BME280;69556;45.004;7.532;2023-10-19T05:47:00;97523.03;;;11.64;89.49
80242;BME280;69556;45.004;7.532;2023-10-19T05:49:25;97536.88;;;11.69;89.50
80242;BME280;69556;45.004;7.532;2023-10-19T05:51:51;97557.53;;;11.78;88.98
80242;BME280;69556;45.004;7.532;2023-10-19T05:54:17;97537.38;;;11.60;89.02
80242;BME280;69556;45.004;7.532;2023-10-19T05:56:46;97514.41;;;11.44;88.33
80242;BME280;69556;45.004;7.532;2023-10-19T05:59:16;97551.38;;;11.77;88.78
80242;BME280;69556;45.004;7.532;2023-10-19T06:01:58;97579.03;;;11.87;88.07
80242;BME280;69556;45.004;7.532;2023-10-19T06:04:31;97503.69;;;11.47;87.96
80242;BME280;69556;45.004;7.532;2023-10-19T06:06:57;97529.44;;;11.60;87.62
80242;BME280;69556;45.004;7.532;2023-10-19T06:09:37;97572.13;;;11.85;87.52
80242;BME280;69556;45.004;7.532;2023-10-19T06:12:32;97553.19;;;11.77;86.86
80242;BME280;69556;45.004;7.532;2023-10-19T06:15:02;97512.44;;;11.48;87.15
80242;BME280;69556;45.004;7.532;2023-10-19T06:17:28;97504.78;;;11.43;88.24
80242;BME280;69556;45.004;7.532;2023-10-19T06:19:54;97559.31;;;11.77;88.71
80242;BME280;69556;45.004;7.532;2023-10-19T06:22:21;97517.00;;;11.62;88.53
80242;BME280;69556;45.004;7.532;2023-10-19T06:24:47;97566.84;;;11.85;88.38
80242;BME280;69556;45.004;7.532;2023-10-19T06:27:12;97586.44;;;11.81;89.11
80242;BME280;69556;45.004;7.532;2023-10-19T06:29:41;97556.16;;;11.71;89.09
80242;BME280;69556;45.004;7.532;2023-10-19T06:32:09;97561.22;;;11.75;88.99
80242;BME280;69556;45.004;7.532;2023-10-19T06:34:35;97512.19;;;11.53;88.43
80242;BME280;69556;45.004;7.532;2023-10-19T06:37:00;97530.53;;;11.71;89.20
80242;BME280;69556;45.004;7.532;2023-10-19T06:39:29;97515.38;;;11.59;88.63
80242;BME280;69556;45.004;7.532;2023-10-19T06:41:54;97522.63;;;11.56;89.00
80242;BME280;69556;45.004;7.532;2023-10-19T06:44:20;97542.84;;;11.57;89.11
80242;BME280;69556;45.004;7.532;2023-10-19T06:46:50;97525.75;;;11.46;89.26
80242;BME280;69556;45.004;7.532;2023-10-19T06:49:18;97591.56;;;11.84;89.49
80242;BME280;69556;45.004;7.532;2023-10-19T06:51:44;97579.88;;;11.88;89.42
80242;BME280;69556;45.004;7.532;2023-10-19T06:54:13;97572.63;;;11.91;88.90
80242;BME280;69556;45.004;7.532;2023-10-19T06:56:39;97550.47;;;11.94;88.44
80242;BME280;69556;45.004;7.532;2023-10-19T06:59:05;97557.19;;;12.00;87.66
80242;BME280;69556;45.004;7.532;2023-10-19T07:01:30;97536.06;;;11.84;88.16
80242;BME280;69556;45.004;7.532;2023-10-19T07:04:00;97576.56;;;12.00;88.41
80242;BME280;69556;45.004;7.532;2023-10-19T07:06:26;97518.91;;;11.75;88.83
80242;BME280;69556;45.004;7.532;2023-10-19T07:09:11;97559.41;;;12.07;88.69
80242;BME280;69556;45.004;7.532;2023-10-19T07:11:52;97555.47;;;12.14;88.51
80242;BME280;69556;45.004;7.532;2023-10-19T07:14:45;97509.50;;;11.85;88.22
80242;BME280;69556;45.004;7.532;2023-10-19T07:17:18;97549.09;;;12.03;88.84
80242;BME280;69556;45.004;7.532;2023-10-19T07:19:52;97550.28;;;12.13;88.73
80242;BME280;69556;45.004;7.532;2023-10-19T07:22:28;97516.91;;;11.95;88.94
80242;BME280;69556;45.004;7.532;2023-10-19T07:25:00;97532.44;;;12.01;88.96
80242;BME280;69556;45.004;7.532;2023-10-19T07:27:36;97539.91;;;11.94;88.74
80242;BME280;69556;45.004;7.532;2023-10-19T07:30:02;97543.47;;;11.77;90.02
80242;BME280;69556;45.004;7.532;2023-10-19T07:32:44;97544.56;;;11.73;90.16
80242;BME280;69556;45.004;7.532;2023-10-19T07:35:09;97601.28;;;11.99;89.42
80242;BME280;69556;45.004;7.532;2023-10-19T07:37:39;97532.50;;;11.68;89.87
80242;BME280;69556;45.004;7.532;2023-10-19T07:40:05;97540.06;;;11.75;88.41
80242;BME280;69556;45.004;7.532;2023-10-19T07:42:35;97535.63;;;11.91;88.61
80242;BME280;69556;45.004;7.532;2023-10-19T07:45:03;97553.16;;;12.24;88.48
80242;BME280;69556;45.004;7.532;2023-10-19T07:47:30;97522.81;;;12.15;88.60
80242;BME280;69556;45.004;7.532;2023-10-19T07:49:57;97518.63;;;12.11;87.66
80242;BME280;69556;45.004;7.532;2023-10-19T07:52:27;97530.66;;;12.17;87.26
80242;BME280;69556;45.004;7.532;2023-10-19T07:54:55;97523.31;;;12.22;86.96
80242;BME280;69556;45.004;7.532;2023-10-19T07:57:24;97550.97;;;12.46;86.81
80242;BME280;69556;45.004;7.532;2023-10-19T07:59:59;97513.72;;;12.35;86.46
80242;BME280;69556;45.004;7.532;2023-10-19T08:02:25;97465.19;;;12.20;86.97
80242;BME280;69556;45.004;7.532;2023-10-19T08:05:02;97475.75;;;12.36;86.03
80242;BME280;69556;45.004;7.532;2023-10-19T08:07:37;97474.94;;;12.50;84.56
80242;BME280;69556;45.004;7.532;2023-10-19T08:10:19;97496.16;;;12.78;83.94
80242;BME280;69556;45.004;7.532;2023-10-19T08:12:47;97518.06;;;13.10;82.34
80242;BME280;69556;45.004;7.532;2023-10-19T08:15:26;97495.97;;;13.11;81.53
80242;BME280;69556;45.004;7.532;2023-10-19T08:17:57;97453.63;;;12.95;81.39
80242;BME280;69556;45.004;7.532;2023-10-19T08:20:34;97525.75;;;13.43;80.54
80242;BME280;69556;45.004;7.532;2023-10-19T08:23:08;97476.59;;;13.09;80.26
80242;BME280;69556;45.004;7.532;2023-10-19T08:25:40;97486.19;;;13.11;80.11
80242;BME280;69556;45.004;7.532;2023-10-19T08:28:47;97530.84;;;13.17;80.52
80242;BME280;69556;45.004;7.532;2023-10-19T08:31:12;97494.19;;;12.96;80.60
80242;BME280;69556;45.004;7.532;2023-10-19T08:33:42;97499.78;;;12.91;80.44
80242;BME280;69556;45.004;7.532;2023-10-19T08:36:18;97492.75;;;12.76;80.35
80242;BME280;69556;45.004;7.532;2023-10-19T08:38:53;97482.78;;;12.65;80.97
80242;BME280;69556;45.004;7.532;2023-10-19T08:41:19;97523.03;;;12.86;82.11
80242;BME280;69556;45.004;7.532;2023-10-19T08:43:52;97524.63;;;12.89;82.15
80242;BME280;69556;45.004;7.532;2023-10-19T08:46:31;97544.41;;;12.97;81.81
80242;BME280;69556;45.004;7.532;2023-10-19T08:52:35;97490.03;;;12.77;81.61
80242;BME280;69556;45.004;7.532;2023-10-19T08:55:36;97519.69;;;13.12;81.43
80242;BME280;69556;45.004;7.532;2023-10-19T08:58:33;97463.84;;;12.87;81.45
80242;BME280;69556;45.004;7.532;2023-10-19T09:01:33;97450.28;;;12.77;81.20
80242;BME280;69556;45.004;7.532;2023-10-19T09:04:47;97503.09;;;13.09;80.92
80242;BME280;69556;45.004;7.532;2023-10-19T09:07:26;97439.72;;;12.77;80.94
80242;BME280;69556;45.004;7.532;2023-10-19T09:10:29;97458.06;;;12.95;80.47
80242;BME280;69556;45.004;7.532;2023-10-19T09:13:11;97506.53;;;13.25;79.70
80242;BME280;69556;45.004;7.532;2023-10-19T09:22:43;97420.69;;;12.99;80.34
80242;BME280;69556;45.004;7.532;2023-10-19T09:28:33;97419.25;;;13.36;79.63
80242;BME280;69556;45.004;7.532;2023-10-19T09:31:16;97464.44;;;13.76;79.20
80242;BME280;69556;45.004;7.532;2023-10-19T09:33:55;97393.25;;;13.29;77.75
80242;BME280;69556;45.004;7.532;2023-10-19T09:36:43;97432.97;;;13.57;77.67
80242;BME280;69556;45.004;7.532;2023-10-19T09:39:11;97447.91;;;13.58;77.90
80242;BME280;69556;45.004;7.532;2023-10-19T09:42:20;97473.06;;;13.79;77.40
80242;BME280;69556;45.004;7.532;2023-10-19T09:45:04;97466.97;;;13.77;77.46
80242;BME280;69556;45.004;7.532;2023-10-19T10:00:52;97415.53;;;14.06;74.54
80242;BME280;69556;45.004;7.532;2023-10-19T10:27:27;97429.38;;;15.02;73.93
80242;BME280;69556;45.004;7.532;2023-10-19T10:35:54;97410.47;;;14.81;72.44
80242;BME280;69556;45.004;7.532;2023-10-19T10:38:20;97417.47;;;14.94;73.00
80242;BME280;69556;45.004;7.532;2023-10-19T10:40:47;97418.19;;;15.09;72.62
80242;BME280;69556;45.004;7.532;2023-10-19T10:43:17;97403.22;;;15.21;72.61
80242;BME280;69556;45.004;7.532;2023-10-19T10:45:42;97392.50;;;15.46;71.46
80242;BME280;69556;45.004;7.532;2023-10-19T10:48:16;97399.97;;;15.77;71.61
80242;BME280;69556;45.004;7.532;2023-10-19T10:50:42;97387.16;;;15.82;69.08
80242;BME280;69556;45.004;7.532;2023-10-19T10:53:08;97380.09;;;15.94;69.38
80242;BME280;69556;45.004;7.532;2023-10-19T10:55:34;97365.25;;;15.79;68.99
80242;BME280;69556;45.004;7.532;2023-10-19T10:57:59;97359.53;;;15.72;68.61
80242;BME280;69556;45.004;7.532;2023-10-19T11:00:25;97374.72;;;15.59;69.33
80242;BME280;69556;45.004;7.532;2023-10-19T11:03:00;97376.78;;;15.43;69.16
80242;BME280;69556;45.004;7.532;2023-10-19T11:05:26;97371.94;;;15.61;69.32
80242;BME280;69556;45.004;7.532;2023-10-19T11:10:34;97369.75;;;15.78;69.57
80242;BME280;69556;45.004;7.532;2023-10-19T11:13:10;97364.69;;;15.86;68.97
80242;BME280;69556;45.004;7.532;2023-10-19T11:15:37;97364.47;;;15.90;68.74
80242;BME280;69556;45.004;7.532;2023-10-19T11:18:03;97370.66;;;15.90;69.76
80242;BME280;69556;45.004;7.532;2023-10-19T11:20:29;97371.84;;;15.86;69.53
80242;BME280;69556;45.004;7.532;2023-10-19T11:22:56;97372.63;;;15.75;69.76
80242;BME280;69556;45.004;7.532;2023-10-19T11:25:24;97361.03;;;15.76;69.27
80242;BME280;69556;45.004;7.532;2023-10-19T11:27:49;97363.41;;;15.68;68.70
80242;BME280;69556;45.004;7.532;2023-10-19T11:30:31;97362.44;;;15.69;69.14
80242;BME280;69556;45.004;7.532;2023-10-19T11:32:58;97363.78;;;15.51;70.00
80242;BME280;69556;45.004;7.532;2023-10-19T11:35:29;97349.91;;;15.35;70.20
80242;BME280;69556;45.004;7.532;2023-10-19T11:37:58;97365.00;;;15.22;71.10
80242;BME280;69556;45.004;7.532;2023-10-19T11:40:24;97353.84;;;15.29;71.44
80242;BME280;69556;45.004;7.532;2023-10-19T11:42:51;97352.84;;;15.30;70.51
80242;BME280;69556;45.004;7.532;2023-10-19T11:45:17;97358.50;;;15.38;70.77
80242;BME280;69556;45.004;7.532;2023-10-19T11:47:43;97354.31;;;15.47;70.56
80242;BME280;69556;45.004;7.532;2023-10-19T11:50:10;97349.53;;;15.52;71.17
80242;BME280;69556;45.004;7.532;2023-10-19T11:52:41;97337.25;;;15.50;70.06
80242;BME280;69556;45.004;7.532;2023-10-19T11:55:07;97338.31;;;15.60;71.02
80242;BME280;69556;45.004;7.532;2023-10-19T11:57:34;97325.63;;;15.63;69.58
80242;BME280;69556;45.004;7.532;2023-10-19T11:59:59;97315.75;;;15.65;69.76
80242;BME280;69556;45.004;7.532;2023-10-19T12:02:25;97314.72;;;15.55;69.64
80242;BME280;69556;45.004;7.532;2023-10-19T12:04:52;97309.75;;;15.51;70.35
80242;BME280;69556;45.004;7.532;2023-10-19T12:07:17;97311.25;;;15.42;69.48
80242;BME280;69556;45.004;7.532;2023-10-19T12:09:43;97312.81;;;15.57;69.36
80242;BME280;69556;45.004;7.532;2023-10-19T12:12:10;97313.53;;;15.59;69.60
80242;BME280;69556;45.004;7.532;2023-10-19T12:14:38;97305.00;;;15.30;69.62
80242;BME280;69556;45.004;7.532;2023-10-19T12:17:04;97293.81;;;15.38;70.41
80242;BME280;69556;45.004;7.532;2023-10-19T12:19:31;97303.78;;;15.47;70.44
80242;BME280;69556;45.004;7.532;2023-10-19T12:21:57;97300.00;;;15.38;70.08
80242;BME280;69556;45.004;7.532;2023-10-19T12:24:23;97287.75;;;15.36;69.88
80242;BME280;69556;45.004;7.532;2023-10-19T12:26:49;97278.75;;;15.50;69.32
80242;BME280;69556;45.004;7.532;2023-10-19T12:29:15;97277.63;;;15.41;69.85
80242;BME280;69556;45.004;7.532;2023-10-19T12:31:42;97279.91;;;15.34;69.77
80242;BME280;69556;45.004;7.532;2023-10-19T12:34:08;97289.69;;;15.34;70.33
80242;BME280;69556;45.004;7.532;2023-10-19T12:36:36;97274.19;;;15.28;70.99
80242;BME280;69556;45.004;7.532;2023-10-19T12:39:01;97275.66;;;15.32;70.86
80242;BME280;69556;45.004;7.532;2023-10-19T12:41:30;97272.28;;;15.30;70.84
80242;BME280;69556;45.004;7.532;2023-10-19T12:43:57;97271.63;;;15.26;71.23
80242;BME280;69556;45.004;7.532;2023-10-19T12:46:23;97287.06;;;15.21;71.70
80242;BME280;69556;45.004;7.532;2023-10-19T12:48:54;97289.97;;;15.18;70.54
80242;BME280;69556;45.004;7.532;2023-10-19T12:51:21;97277.19;;;15.23;71.07
80242;BME280;69556;45.004;7.532;2023-10-19T12:53:53;97257.44;;;15.15;71.00
80242;BME280;69556;45.004;7.532;2023-10-19T12:56:19;97252.03;;;15.16;70.75
80242;BME280;69556;45.004;7.532;2023-10-19T12:58:45;97249.03;;;15.21;70.93
80242;BME280;69556;45.004;7.532;2023-10-19T13:01:10;97253.38;;;15.22;71.16
80242;BME280;69556;45.004;7.532;2023-10-19T13:03:45;97244.34;;;15.24;71.60
80242;BME280;69556;45.004;7.532;2023-10-19T13:06:11;97234.75;;;15.22;71.05
80242;BME280;69556;45.004;7.532;2023-10-19T13:08:37;97240.75;;;15.13;71.08
80242;BME280;69556;45.004;7.532;2023-10-19T13:11:06;97244.16;;;15.15;72.22
80242;BME280;69556;45.004;7.532;2023-10-19T13:13:31;97238.94;;;15.13;72.52
80242;BME280;69556;45.004;7.532;2023-10-19T13:15:57;97242.91;;;15.08;72.75
80242;BME280;69556;45.004;7.532;2023-10-19T13:18:23;97239.53;;;15.06;72.58
80242;BME280;69556;45.004;7.532;2023-10-19T13:20:56;97233.63;;;15.13;72.91
80242;BME280;69556;45.004;7.532;2023-10-19T13:23:22;97221.28;;;15.12;72.71
80242;BME280;69556;45.004;7.532;2023-10-19T13:25:48;97216.63;;;15.16;72.84
80242;BME280;69556;45.004;7.532;2023-10-19T13:28:23;97205.75;;;15.19;72.51
80242;BME280;69556;45.004;7.532;2023-10-19T13:30:50;97179.78;;;15.22;71.96
80242;BME280;69556;45.004;7.532;2023-10-19T13:33:17;97192.63;;;15.28;71.73
80242;BME280;69556;45.004;7.532;2023-10-19T13:35:43;97199.81;;;15.15;71.80
80242;BME280;69556;45.004;7.532;2023-10-19T13:38:10;97200.69;;;15.16;71.82
80242;BME280;69556;45.004;7.532;2023-10-19T13:40:37;97192.22;;;15.22;71.62
80242;BME280;69556;45.004;7.532;2023-10-19T13:43:07;97181.59;;;15.22;71.18
80242;BME280;69556;45.004;7.532;2023-10-19T13:45:34;97181.59;;;15.22;72.04
80242;BME280;69556;45.004;7.532;2023-10-19T13:48:01;97182.34;;;15.24;72.37
80242;BME280;69556;45.004;7.532;2023-10-19T13:50:28;97164.78;;;15.10;72.27
80242;BME280;69556;45.004;7.532;2023-10-19T13:52:55;97152.03;;;15.03;73.18
80242;BME280;69556;45.004;7.532;2023-10-19T13:55:22;97160.25;;;14.99;73.51
80242;BME280;69556;45.004;7.532;2023-10-19T13:57:49;97169.41;;;14.95;74.10
80242;BME280;69556;45.004;7.532;2023-10-19T14:00:22;97166.13;;;14.92;73.62
80242;BME280;69556;45.004;7.532;2023-10-19T14:02:55;97167.00;;;14.92;73.68
80242;BME280;69556;45.004;7.532;2023-10-19T14:05:21;97153.53;;;14.83;74.14
80242;BME280;69556;45.004;7.532;2023-10-19T14:07:49;97154.72;;;14.79;73.75
80242;BME280;69556;45.004;7.532;2023-10-19T14:10:14;97140.47;;;14.80;74.20
80242;BME280;69556;45.004;7.532;2023-10-19T14:12:42;97155.09;;;14.85;74.14
80242;BME280;69556;45.004;7.532;2023-10-19T14:15:19;97161.09;;;14.76;74.70
80242;BME280;69556;45.004;7.532;2023-10-19T14:17:46;97178.13;;;14.74;74.47
80242;BME280;69556;45.004;7.532;2023-10-19T14:20:13;97161.09;;;14.76;75.24
80242;BME280;69556;45.004;7.532;2023-10-19T14:22:43;97161.84;;;14.78;74.90